Time;durP1;ratioP1;P1;durP2;ratioP2;P2;SDS_P1;SDS_P2;PMS_P1;PMS_P2;Temp;Humidity;BMP_temperature;BMP_pressure;BME280_temperature;BME280_humidity;BME280_pressure;Samples;Min_cycle;Max_cycle;Signal;HPM_P1;HPM_P2
2023/09/28 00:02:07;;;;;;;;;;;;;;;;;;5006606;28;19929;-59
2023/09/28 00:04:32;;;;;;;;;;;;;;;;;;5008835;28;19929;-60
2023/09/28 00:06:58;;;;;;;;;;;;;;;;;;5011748;28;19928;-60
2023/09/28 00:09:24;;;;;;;;;;;;;;;;;;5010619;28;20028;-60
2023/09/28 00:11:50;;;;;;;;;;;;;;;;;;5024738;28;19929;-60
2023/09/28 00:14:16;;;;;;;;;;;;;;;;;;5009778;28;19949;-60
2023/09/28 00:16:42;;;;;;;;;;;;;;;;;;5008712;28;19922;-60
2023/09/28 00:19:08;;;;;;;;;;;;;;;;;;5009592;28;19933;-60
2023/09/28 00:21:34;;;;;;;;;;;;;;;;;;5010055;28;19968;-60
2023/09/28 00:24:02;;;;;;;;;;;;;;;;;;5006438;28;20004;-60
2023/09/28 00:26:28;;;;;;;;;;;;;;;;;;5010475;28;19948;-60
2023/09/28 00:28:54;;;;;;;;;;;;;;;;;;5006721;28;19929;-60
2023/09/28 00:31:20;;;;;;;;;;;;;;;;;;5005867;28;19933;-61
2023/09/28 00:33:46;;;;;;;;;;;;;;;;;;5009110;28;20012;-60
2023/09/28 00:36:12;;;;;;;;;;;;;;;;;;5008095;28;19969;-61
2023/09/28 00:38:38;;;;;;;;;;;;;;;;;;5043264;22;19929;-61
2023/09/28 00:41:04;;;;;;;;;;;;;;;;;;5049592;28;19952;-61
2023/09/28 00:43:30;;;;;;;;;;;;;;;;;;5041504;28;20011;-61
2023/09/28 00:45:56;;;;;;;;;;;;;;;;;;5047452;28;20342;-61
2023/09/28 00:48:22;;;;;;;;;;;;;;;;;;5047323;28;19921;-61
2023/09/28 00:50:48;;;;;;;;;;;;;;;;;;5048569;28;20020;-61
2023/09/28 00:53:14;;;;;;;;;;;;;;;;;;5047187;28;19956;-61
2023/09/28 00:55:40;;;;;;;;;;;;;;;;;;5050915;28;19944;-61
2023/09/28 00:58:06;;;;;;;;;;;;;;;;;;5047590;28;20366;-60
2023/09/28 01:00:33;;;;;;;;;;;;;;;;;;5048727;28;19959;-60
2023/09/28 01:02:59;;;;;;;;;;;;;;;;;;5043564;28;19944;-61
2023/09/28 01:05:26;;;;;;;;;;;;;;;;;;5052788;28;19925;-61
2023/09/28 01:07:52;;;;;;;;;;;;;;;;;;5050026;28;19924;-60
2023/09/28 01:10:29;;;;;;;;;;;;;;;;;;5057612;28;19958;-60
2023/09/28 01:12:55;;;;;;;;;;;;;;;;;;5053457;28;20372;-61
2023/09/28 01:15:22;;;;;;;;;;;;;;;;;;5054681;28;20011;-61
2023/09/28 01:17:48;;;;;;;;;;;;;;;;;;5054257;28;19928;-60
2023/09/28 01:20:24;;;;;;;;;;;;;;;;;;5053004;28;19929;-60
2023/09/28 01:22:50;;;;;;;;;;;;;;;;;;5059546;28;20701;-61
2023/09/28 01:25:18;;;;;;;;;;;;;;;;;;5037721;28;19936;-61
2023/09/28 01:27:45;;;;;;;;;;;;;;;;;;5052791;28;20444;-61
2023/09/28 01:30:11;;;;;;;;;;;;;;;;;;5049223;28;19920;-61
2023/09/28 01:32:37;;;;;;;;;;;;;;;;;;5051991;28;19928;-61
2023/09/28 01:35:04;;;;;;;;;;;;;;;;;;5050497;28;19924;-60
2023/09/28 01:37:30;;;;;;;;;;;;;;;;;;5053028;28;20349;-60
2023/09/28 01:39:56;;;;;;;;;;;;;;;;;;5049713;28;20032;-60
2023/09/28 01:42:22;;;;;;;;;;;;;;;;;;5052240;28;19979;-60
2023/09/28 01:44:48;;;;;;;;;;;;;;;;;;5049888;28;19920;-60
2023/09/28 01:47:14;;;;;;;;;;;;;;;;;;5050949;28;19920;-61
2023/09/28 01:49:40;;;;;;;;;;;;;;;;;;5050025;28;20458;-60
2023/09/28 01:52:06;;;;;;;;;;;;;;;;;;5053410;28;20019;-61
2023/09/28 01:54:32;;;;;;;;;;;;;;;;;;5051436;28;20019;-60
2023/09/28 01:56:58;;;;;;;;;;;;;;;;;;5052605;28;19925;-60
2023/09/28 01:59:24;;;;;;;;;;;;;;;;;;5049567;28;19921;-61
2023/09/28 02:01:50;;;;;;;;;;;;;;;;;;5053962;28;19952;-60
2023/09/28 02:04:16;;;;;;;;;;;;;;;;;;5050346;28;19929;-61
2023/09/28 02:06:42;;;;;;;;;;;;;;;;;;5034875;28;20315;-60
2023/09/28 02:09:10;;;;;;;;;;;;;;;;;;5052751;28;20259;-60
2023/09/28 02:11:43;;;;;;;;;;;;;;;;;;5053088;28;20440;-60
2023/09/28 02:14:09;;;;;;;;;;;;;;;;;;5054254;28;20371;-60
2023/09/28 02:16:35;;;;;;;;;;;;;;;;;;5053333;28;20031;-60
2023/09/28 02:19:01;;;;;;;;;;;;;;;;;;5053066;28;19928;-60
2023/09/28 02:21:27;;;;;;;;;;;;;;;;;;5052254;28;19931;-60
2023/09/28 02:23:53;;;;;;;;;;;;;;;;;;5053417;28;19947;-60
2023/09/28 02:26:19;;;;;;;;;;;;;;;;;;5050338;28;20424;-60
2023/09/28 02:28:45;;;;;;;;;;;;;;;;;;5052164;28;19920;-60
2023/09/28 02:31:11;;;;;;;;;;;;;;;;;;5052392;28;19924;-60
2023/09/28 02:33:37;;;;;;;;;;;;;;;;;;5048887;28;19924;-60
2023/09/28 02:36:03;;;;;;;;;;;;;;;;;;5053746;28;20084;-60
2023/09/28 02:38:29;;;;;;;;;;;;;;;;;;5051671;28;19928;-61
2023/09/28 02:40:55;;;;;;;;;;;;;;;;;;5054111;28;19935;-61
2023/09/28 02:43:21;;;;;;;;;;;;;;;;;;5052019;28;20330;-61
2023/09/28 02:45:47;;;;;;;;;;;;;;;;;;5052711;28;19932;-61
2023/09/28 02:48:13;;;;;;;;;;;;;;;;;;5050521;28;19921;-61
2023/09/28 02:50:39;;;;;;;;;;;;;;;;;;5051244;28;20519;-61
2023/09/28 02:53:06;;;;;;;;;;;;;;;;;;5050266;28;19925;-61
2023/09/28 02:55:32;;;;;;;;;;;;;;;;;;5049675;28;19936;-60
2023/09/28 02:57:58;;;;;;;;;;;;;;;;;;5049191;28;19935;-60
2023/09/28 03:00:25;;;;;;;;;;;;;;;;;;5049737;28;19920;-61
2023/09/28 03:02:51;;;;;;;;;;;;;;;;;;5050815;28;19936;-60
2023/09/28 03:05:19;;;;;;;;;;;;;;;;;;5049261;28;20368;-61
2023/09/28 03:07:45;;;;;;;;;;;;;;;;;;5048680;28;20382;-61
2023/09/28 03:10:11;;;;;;;;;;;;;;;;;;5053229;28;20290;-60
2023/09/28 03:12:38;;;;;;;;;;;;;;;;;;5049292;28;19929;-60
2023/09/28 03:15:10;;;;;;;;;;;;;;;;;;5051670;28;20408;-60
2023/09/28 03:17:36;;;;;;;;;;;;;;;;;;5053348;28;19971;-60
2023/09/28 03:20:09;;;;;;;;;;;;;;;;;;5058692;28;19956;-60
2023/09/28 03:22:35;;;;;;;;;;;;;;;;;;5050996;28;19967;-60
2023/09/28 03:25:01;;;;;;;;;;;;;;;;;;5052344;28;19970;-60
2023/09/28 03:27:27;;;;;;;;;;;;;;;;;;5061110;28;19920;-60
2023/09/28 03:29:53;;;;;;;;;;;;;;;;;;5054751;28;19921;-60
2023/09/28 03:32:19;;;;;;;;;;;;;;;;;;5049990;28;19971;-60
2023/09/28 03:34:46;;;;;;;;;;;;;;;;;;5047456;28;19924;-60
2023/09/28 03:37:11;;;;;;;;;;;;;;;;;;5052661;28;19925;-60
2023/09/28 03:39:38;;;;;;;;;;;;;;;;;;5049156;28;20634;-60
2023/09/28 03:42:04;;;;;;;;;;;;;;;;;;5050976;28;19929;-60
2023/09/28 03:44:29;;;;;;;;;;;;;;;;;;5049803;28;20323;-60
2023/09/28 03:46:55;;;;;;;;;;;;;;;;;;5049533;28;19921;-61
2023/09/28 03:49:21;;;;;;;;;;;;;;;;;;5050895;28;19955;-60
2023/09/28 03:51:47;;;;;;;;;;;;;;;;;;5050338;28;20005;-60
2023/09/28 03:54:13;;;;;;;;;;;;;;;;;;5050681;28;19925;-61
2023/09/28 03:56:39;;;;;;;;;;;;;;;;;;5048824;28;19925;-60
2023/09/28 03:59:05;;;;;;;;;;;;;;;;;;5047417;28;20023;-60
2023/09/28 04:01:31;;;;;;;;;;;;;;;;;;5048470;28;19925;-60
2023/09/28 04:03:57;;;;;;;;;;;;;;;;;;5048849;28;19952;-60
2023/09/28 04:06:23;;;;;;;;;;;;;;;;;;5047659;28;19967;-60
2023/09/28 04:08:49;;;;;;;;;;;;;;;;;;5046739;28;19929;-60
2023/09/28 04:11:15;;;;;;;;;;;;;;;;;;5048850;28;19929;-62
2023/09/28 04:13:41;;;;;;;;;;;;;;;;;;5051066;28;19960;-60
2023/09/28 04:16:07;;;;;;;;;;;;;;;;;;5048261;28;19920;-60
2023/09/28 04:18:33;;;;;;;;;;;;;;;;;;5052461;28;19977;-60
2023/09/28 04:20:58;;;;;;;;;;;;;;;;;;5049573;28;19927;-60
2023/09/28 04:23:24;;;;;;;;;;;;;;;;;;5050592;28;19956;-60
2023/09/28 04:25:50;;;;;;;;;;;;;;;;;;5048711;28;19920;-60
2023/09/28 04:28:16;;;;;;;;;;;;;;;;;;5055259;28;20284;-60
2023/09/28 04:30:43;;;;;;;;;;;;;;;;;;5049841;28;19962;-61
2023/09/28 04:33:09;;;;;;;;;;;;;;;;;;5049280;28;19925;-60
2023/09/28 04:35:35;;;;;;;;;;;;;;;;;;5049321;28;20318;-60
2023/09/28 04:38:02;;;;;;;;;;;;;;;;;;5050805;28;19977;-61
2023/09/28 04:40:28;;;;;;;;;;;;;;;;;;5050617;28;20449;-60
2023/09/28 04:42:54;;;;;;;;;;;;;;;;;;5049268;28;20043;-60
2023/09/28 04:45:20;;;;;;;;;;;;;;;;;;5048933;28;19944;-61
2023/09/28 04:47:47;;;;;;;;;;;;;;;;;;5050414;28;20374;-61
2023/09/28 04:50:13;;;;;;;;;;;;;;;;;;5047709;28;20404;-62
2023/09/28 04:52:42;;;;;;;;;;;;;;;;;;5047345;28;19967;-61
2023/09/28 04:55:08;;;;;;;;;;;;;;;;;;5049668;28;19931;-61
2023/09/28 04:57:34;;;;;;;;;;;;;;;;;;5048354;28;19956;-59
2023/09/28 05:00:00;;;;;;;;;;;;;;;;;;5048290;28;19963;-60
2023/09/28 05:02:26;;;;;;;;;;;;;;;;;;5045395;28;20378;-60
2023/09/28 05:04:52;;;;;;;;;;;;;;;;;;5031507;28;19932;-61
2023/09/28 05:07:18;;;;;;;;;;;;;;;;;;5045847;28;20349;-60
2023/09/28 05:09:44;;;;;;;;;;;;;;;;;;5048323;28;19920;-60
2023/09/28 05:12:10;;;;;;;;;;;;;;;;;;5050848;28;19943;-60
2023/09/28 05:14:36;;;;;;;;;;;;;;;;;;5049874;28;20401;-60
2023/09/28 05:17:02;;;;;;;;;;;;;;;;;;5049154;28;19930;-60
2023/09/28 05:19:30;;;;;;;;;;;;;;;;;;5057590;28;19924;-61
2023/09/28 05:21:55;;;;;;;;;;;;;;;;;;5047796;28;20273;-61
2023/09/28 05:24:21;;;;;;;;;;;;;;;;;;5047719;28;19928;-60
2023/09/28 05:26:47;;;;;;;;;;;;;;;;;;5048386;28;19982;-64
2023/09/28 05:29:13;;;;;;;;;;;;;;;;;;5048753;28;19960;-61
2023/09/28 05:31:40;;;;;;;;;;;;;;;;;;5047948;28;19928;-61
2023/09/28 05:34:06;;;;;;;;;;;;;;;;;;5046016;28;20570;-60
2023/09/28 05:36:32;;;;;;;;;;;;;;;;;;5048655;28;19921;-60
2023/09/28 05:38:58;;;;;;;;;;;;;;;;;;5046728;28;19933;-60
2023/09/28 05:41:23;;;;;;;;;;;;;;;;;;5047531;28;20490;-61
2023/09/28 05:43:49;;;;;;;;;;;;;;;;;;5047131;28;20368;-60
2023/09/28 05:46:15;;;;;;;;;;;;;;;;;;5047617;28;19921;-60
2023/09/28 05:48:41;;;;;;;;;;;;;;;;;;5056821;28;19921;-60
2023/09/28 05:51:07;;;;;;;;;;;;;;;;;;5046893;28;19960;-61
2023/09/28 05:53:33;;;;;;;;;;;;;;;;;;5048573;28;19929;-60
2023/09/28 05:55:59;;;;;;;;;;;;;;;;;;5052490;28;19920;-61
2023/09/28 05:58:25;;;;;;;;;;;;;;;;;;5052604;28;19990;-60
2023/09/28 06:00:51;;;;;;;;;;;;;;;;;;5050212;28;19967;-60
2023/09/28 06:03:16;;;;;;;;;;;;;;;;;;5051247;28;19928;-60
2023/09/28 06:05:42;;;;;;;;;;;;;;;;;;5052802;28;19920;-61
2023/09/28 06:08:08;;;;;;;;;;;;;;;;;;5050474;28;19931;-60
2023/09/28 06:10:37;;;;;;;;;;;;;;;;;;5049114;28;20270;-60
2023/09/28 06:13:03;;;;;;;;;;;;;;;;;;5050362;28;19968;-60
2023/09/28 06:15:29;;;;;;;;;;;;;;;;;;5050670;28;19976;-60
2023/09/28 06:17:54;;;;;;;;;;;;;;;;;;5044500;28;19929;-60
2023/09/28 06:20:21;;;;;;;;;;;;;;;;;;5048221;28;19920;-60
2023/09/28 06:22:46;;;;;;;;;;;;;;;;;;5050179;28;20019;-61
2023/09/28 06:25:12;;;;;;;;;;;;;;;;;;5047582;28;20003;-62
2023/09/28 06:27:39;;;;;;;;;;;;;;;;;;5048843;28;19991;-60
2023/09/28 06:30:05;;;;;;;;;;;;;;;;;;5048736;28;20347;-60
2023/09/28 06:32:30;;;;;;;;;;;;;;;;;;5052474;28;19932;-60
2023/09/28 06:34:56;;;;;;;;;;;;;;;;;;5047623;28;19978;-60
2023/09/28 06:37:23;;;;;;;;;;;;;;;;;;5045849;28;20328;-60
2023/09/28 06:39:48;;;;;;;;;;;;;;;;;;5038592;23;19925;-64
2023/09/28 06:42:14;;;;;;;;;;;;;;;;;;5019653;28;19933;-64
2023/09/28 06:44:40;;;;;;;;;;;;;;;;;;5030835;28;19921;-65
2023/09/28 06:47:06;;;;;;;;;;;;;;;;;;5041986;28;19921;-65
2023/09/28 06:49:34;;;;;;;;;;;;;;;;;;5026392;28;20302;-65
2023/09/28 06:52:00;;;;;;;;;;;;;;;;;;5007481;28;20017;-65
2023/09/28 06:54:26;;;;;;;;;;;;;;;;;;5029754;28;20079;-65
2023/09/28 06:56:52;;;;;;;;;;;;;;;;;;5028017;28;20377;-64
2023/09/28 06:59:18;;;;;;;;;;;;;;;;;;5030862;28;19928;-65
2023/09/28 07:01:44;;;;;;;;;;;;;;;;;;5024197;28;20291;-65
2023/09/28 07:04:11;;;;;;;;;;;;;;;;;;5027511;28;19928;-65
2023/09/28 07:06:37;;;;;;;;;;;;;;;;;;5014205;28;19922;-66
2023/09/28 07:09:05;;;;;;;;;;;;;;;;;;5015647;28;20291;-65
2023/09/28 07:11:32;;;;;;;;;;;;;;;;;;5018888;28;20345;-65
2023/09/28 07:13:58;;;;;;;;;;;;;;;;;;5026515;28;19925;-66
2023/09/28 07:16:23;;;;;;;;;;;;;;;;;;5030237;28;19971;-64
2023/09/28 07:18:49;;;;;;;;;;;;;;;;;;5026709;28;20565;-65
2023/09/28 07:21:15;;;;;;;;;;;;;;;;;;5031487;28;19924;-66
2023/09/28 07:23:41;;;;;;;;;;;;;;;;;;5004297;28;19921;-65
2023/09/28 07:26:07;;;;;;;;;;;;;;;;;;5010216;28;20397;-65
2023/09/28 07:28:33;;;;;;;;;;;;;;;;;;5011150;28;19925;-65
2023/09/28 07:30:59;;;;;;;;;;;;;;;;;;5014201;28;19949;-65
2023/09/28 07:33:26;;;;;;;;;;;;;;;;;;5012415;28;19928;-66
2023/09/28 07:35:52;;;;;;;;;;;;;;;;;;5009911;28;20309;-66
2023/09/28 07:38:18;;;;;;;;;;;;;;;;;;5010008;28;19933;-66
2023/09/28 07:40:43;;;;;;;;;;;;;;;;;;5012224;28;19921;-66
2023/09/28 07:43:09;;;;;;;;;;;;;;;;;;5009923;28;19929;-65
2023/09/28 07:45:37;;;;;;;;;;;;;;;;;;5010908;28;19933;-65
2023/09/28 07:48:02;;;;;;;;;;;;;;;;;;5022397;28;19928;-65
2023/09/28 07:50:28;;;;;;;;;;;;;;;;;;5011372;28;19930;-65
2023/09/28 07:52:54;;;;;;;;;;;;;;;;;;5000509;28;20241;-64
2023/09/28 07:55:20;;;;;;;;;;;;;;;;;;5011243;28;19967;-65
2023/09/28 07:57:47;;;;;;;;;;;;;;;;;;5010930;28;19969;-64
2023/09/28 08:00:13;;;;;;;;;;;;;;;;;;5012392;28;19932;-65
2023/09/28 08:02:40;;;;;;;;;;;;;;;;;;5011231;28;19921;-65
2023/09/28 08:05:06;;;;;;;;;;;;;;;;;;5010841;28;19964;-65
2023/09/28 08:07:33;;;;;;;;;;;;;;;;;;5010743;28;19921;-65
2023/09/28 08:10:00;;;;;;;;;;;;;;;;;;5005912;28;19925;-65
2023/09/28 08:12:26;;;;;;;;;;;;;;;;;;5010281;28;20272;-64
2023/09/28 08:14:52;;;;;;;;;;;;;;;;;;5010966;28;19925;-64
2023/09/28 08:17:19;;;;;;;;;;;;;;;;;;5026551;28;19953;-64
2023/09/28 08:19:45;;;;;;;;;;;;;;;;;;5009759;28;20008;-65
2023/09/28 08:22:11;;;;;;;;;;;;;;;;;;5010458;28;20366;-65
2023/09/28 08:24:37;;;;;;;;;;;;;;;;;;5006024;28;19925;-65
2023/09/28 08:27:04;;;;;;;;;;;;;;;;;;5011820;28;19921;-67
2023/09/28 08:29:30;;;;;;;;;;;;;;;;;;5010554;28;19965;-66
2023/09/28 08:31:57;;;;;;;;;;;;;;;;;;5010125;28;19979;-66
2023/09/28 08:34:23;;;;;;;;;;;;;;;;;;5014196;28;20398;-66
2023/09/28 08:36:49;;;;;;;;;;;;;;;;;;5016992;28;20370;-66
2023/09/28 08:39:15;;;;;;;;;;;;;;;;;;5012435;28;19980;-66
2023/09/28 08:41:43;;;;;;;;;;;;;;;;;;5010952;28;19925;-66
2023/09/28 08:44:09;;;;;;;;;;;;;;;;;;5010405;28;20390;-66
2023/09/28 08:46:38;;;;;;;;;;;;;;;;;;5010741;28;19929;-66
2023/09/28 08:49:05;;;;;;;;;;;;;;;;;;5012853;28;19928;-65
2023/09/28 08:51:31;;;;;;;;;;;;;;;;;;5014300;28;20020;-66
2023/09/28 08:53:57;;;;;;;;;;;;;;;;;;5012570;28;20029;-65
2023/09/28 08:56:23;;;;;;;;;;;;;;;;;;5012288;28;19922;-65
2023/09/28 08:58:49;;;;;;;;;;;;;;;;;;5011258;28;19952;-66
2023/09/28 09:01:15;;;;;;;;;;;;;;;;;;5016413;28;19929;-65
2023/09/28 09:03:41;;;;;;;;;;;;;;;;;;5013436;28;20338;-65
2023/09/28 09:06:07;;;;;;;;;;;;;;;;;;5012704;28;19925;-66
2023/09/28 09:08:33;;;;;;;;;;;;;;;;;;5033738;28;19972;-66
2023/09/28 09:11:00;;;;;;;;;;;;;;;;;;5007362;28;19971;-66
2023/09/28 09:13:26;;;;;;;;;;;;;;;;;;5011232;28;20523;-66
2023/09/28 09:15:52;;;;;;;;;;;;;;;;;;5027608;28;20283;-66
2023/09/28 09:18:18;;;;;;;;;;;;;;;;;;5015889;28;19925;-66
2023/09/28 09:20:46;;;;;;;;;;;;;;;;;;5008500;28;20436;-65
2023/09/28 09:23:12;;;;;;;;;;;;;;;;;;5007512;28;19925;-66
2023/09/28 09:25:38;;;;;;;;;;;;;;;;;;5006445;28;19929;-65
2023/09/28 09:28:04;;;;;;;;;;;;;;;;;;5009336;28;19991;-66
2023/09/28 09:30:30;;;;;;;;;;;;;;;;;;5016438;28;19925;-66
2023/09/28 09:32:56;;;;;;;;;;;;;;;;;;5009834;28;19925;-65
2023/09/28 09:35:22;;;;;;;;;;;;;;;;;;5005774;28;19932;-66
2023/09/28 09:37:48;;;;;;;;;;;;;;;;;;5011399;28;19926;-65
2023/09/28 09:40:15;;;;;;;;;;;;;;;;;;5011967;28;19932;-65
2023/09/28 09:42:41;;;;;;;;;;;;;;;;;;5014217;28;19927;-66
2023/09/28 09:45:08;;;;;;;;;;;;;;;;;;5013792;28;19940;-65
2023/09/28 09:47:35;;;;;;;;;;;;;;;;;;5011701;28;19961;-66
2023/09/28 09:50:01;;;;;;;;;;;;;;;;;;5012953;28;19921;-66
2023/09/28 09:52:27;;;;;;;;;;;;;;;;;;5012311;28;19932;-66
2023/09/28 09:54:52;;;;;;;;;;;;;;;;;;5005136;28;20256;-66
2023/09/28 09:57:18;;;;;;;;;;;;;;;;;;5006253;28;20048;-66
2023/09/28 09:59:46;;;;;;;;;;;;;;;;;;5011709;28;19928;-66
2023/09/28 10:02:12;;;;;;;;;;;;;;;;;;5010294;28;19929;-66
2023/09/28 10:04:38;;;;;;;;;;;;;;;;;;5014272;28;19967;-67
2023/09/28 10:07:04;;;;;;;;;;;;;;;;;;5023719;28;20416;-67
2023/09/28 10:09:30;;;;;;;;;;;;;;;;;;5010473;28;19930;-67
2023/09/28 10:11:56;;;;;;;;;;;;;;;;;;5014806;28;20299;-67
2023/09/28 10:14:22;;;;;;;;;;;;;;;;;;5010302;28;19932;-67
2023/09/28 10:16:48;;;;;;;;;;;;;;;;;;5015198;28;19929;-67
2023/09/28 10:19:15;;;;;;;;;;;;;;;;;;5009385;28;20387;-67
2023/09/28 10:21:41;;;;;;;;;;;;;;;;;;5024200;28;20399;-67
2023/09/28 10:24:06;;;;;;;;;;;;;;;;;;5014098;28;19937;-67
2023/09/28 10:26:33;;;;;;;;;;;;;;;;;;5024367;28;19931;-67
2023/09/28 10:28:59;;;;;;;;;;;;;;;;;;5017220;28;19968;-66
2023/09/28 10:31:25;;;;;;;;;;;;;;;;;;5011567;28;19976;-66
2023/09/28 10:33:51;;;;;;;;;;;;;;;;;;5002546;28;19929;-67
2023/09/28 10:36:17;;;;;;;;;;;;;;;;;;5004815;28;19997;-67
2023/09/28 10:38:43;;;;;;;;;;;;;;;;;;5004224;28;19983;-66
2023/09/28 10:41:11;;;;;;;;;;;;;;;;;;5000358;28;21303;-67
2023/09/28 10:43:37;;;;;;;;;;;;;;;;;;5004363;28;20393;-67
2023/09/28 10:46:03;;;;;;;;;;;;;;;;;;5002469;28;19932;-66
2023/09/28 10:48:29;;;;;;;;;;;;;;;;;;5008395;28;19933;-67
2023/09/28 10:50:55;;;;;;;;;;;;;;;;;;5008592;28;19944;-67
2023/09/28 10:53:21;;;;;;;;;;;;;;;;;;4998127;28;19965;-66
2023/09/28 10:55:47;;;;;;;;;;;;;;;;;;5010395;28;20311;-66
2023/09/28 10:58:13;;;;;;;;;;;;;;;;;;5016942;28;19929;-66
2023/09/28 11:00:40;;;;;;;;;;;;;;;;;;5007853;28;20299;-66
2023/09/28 11:03:07;;;;;;;;;;;;;;;;;;5011540;28;19929;-66
2023/09/28 11:05:33;;;;;;;;;;;;;;;;;;5005435;28;20260;-66
2023/09/28 11:07:59;;;;;;;;;;;;;;;;;;5016079;28;19928;-67
2023/09/28 11:10:25;;;;;;;;;;;;;;;;;;5008625;28;19933;-66
2023/09/28 11:12:51;;;;;;;;;;;;;;;;;;4994354;28;19937;-66
2023/09/28 11:15:17;;;;;;;;;;;;;;;;;;4999906;28;19984;-66
2023/09/28 11:17:43;;;;;;;;;;;;;;;;;;5020063;28;19929;-67
2023/09/28 11:20:12;;;;;;;;;;;;;;;;;;5003964;28;19932;-66
2023/09/28 11:22:38;;;;;;;;;;;;;;;;;;5008685;28;19957;-66
2023/09/28 11:25:04;;;;;;;;;;;;;;;;;;5007691;28;20590;-66
2023/09/28 11:27:30;;;;;;;;;;;;;;;;;;5013059;28;19957;-66
2023/09/28 11:29:56;;;;;;;;;;;;;;;;;;5009282;28;19921;-65
2023/09/28 11:32:22;;;;;;;;;;;;;;;;;;5011881;28;19921;-64
2023/09/28 11:34:48;;;;;;;;;;;;;;;;;;5012660;28;19972;-66
2023/09/28 11:37:13;;;;;;;;;;;;;;;;;;5014643;28;20606;-66
2023/09/28 11:39:39;;;;;;;;;;;;;;;;;;5019859;28;19975;-66
2023/09/28 11:42:07;;;;;;;;;;;;;;;;;;5011981;28;19921;-66
2023/09/28 11:44:33;;;;;;;;;;;;;;;;;;5021565;28;19935;-65
2023/09/28 11:46:58;;;;;;;;;;;;;;;;;;5012092;28;20004;-66
2023/09/28 11:49:24;;;;;;;;;;;;;;;;;;5020987;28;20489;-65
2023/09/28 11:51:50;;;;;;;;;;;;;;;;;;5019546;28;19926;-65
2023/09/28 11:54:16;;;;;;;;;;;;;;;;;;5017887;28;20651;-65
2023/09/28 11:56:42;;;;;;;;;;;;;;;;;;5017987;28;19968;-65
2023/09/28 11:59:08;;;;;;;;;;;;;;;;;;5003732;28;19925;-66
2023/09/28 12:01:34;;;;;;;;;;;;;;;;;;5016814;28;19932;-66
2023/09/28 12:04:00;;;;;;;;;;;;;;;;;;5016200;28;20279;-66
2023/09/28 12:06:26;;;;;;;;;;;;;;;;;;5018465;28;19921;-67
2023/09/28 12:08:52;;;;;;;;;;;;;;;;;;5014257;28;19928;-66
2023/09/28 12:11:18;;;;;;;;;;;;;;;;;;5021190;28;20482;-65
2023/09/28 12:13:44;;;;;;;;;;;;;;;;;;5012720;28;19926;-66
2023/09/28 12:16:10;;;;;;;;;;;;;;;;;;5011606;28;19959;-66
2023/09/28 12:18:36;;;;;;;;;;;;;;;;;;5021056;28;19924;-66
2023/09/28 12:21:02;;;;;;;;;;;;;;;;;;5014223;28;19926;-65
2023/09/28 12:23:28;;;;;;;;;;;;;;;;;;5012268;28;19965;-66
2023/09/28 12:25:54;;;;;;;;;;;;;;;;;;5010468;28;19925;-65
2023/09/28 12:28:22;;;;;;;;;;;;;;;;;;5010934;28;19932;-65
2023/09/28 12:30:48;;;;;;;;;;;;;;;;;;5009942;28;20359;-66
2023/09/28 12:33:13;;;;;;;;;;;;;;;;;;5009950;28;19932;-64
2023/09/28 12:35:39;;;;;;;;;;;;;;;;;;5006523;28;20026;-65
2023/09/28 12:38:05;;;;;;;;;;;;;;;;;;5011864;28;20375;-65
2023/09/28 12:40:34;;;;;;;;;;;;;;;;;;5010288;28;19928;-66
2023/09/28 12:43:01;;;;;;;;;;;;;;;;;;5011973;28;19971;-65
2023/09/28 12:45:26;;;;;;;;;;;;;;;;;;5010103;28;19928;-65
2023/09/28 12:47:53;;;;;;;;;;;;;;;;;;5009224;28;19921;-66
2023/09/28 12:50:19;;;;;;;;;;;;;;;;;;5003343;28;19930;-66
2023/09/28 12:52:45;;;;;;;;;;;;;;;;;;4987108;28;19929;-65
2023/09/28 12:55:12;;;;;;;;;;;;;;;;;;5008686;28;19928;-65
2023/09/28 12:57:37;;;;;;;;;;;;;;;;;;5014218;28;19929;-65
2023/09/28 13:00:08;;;;;;;;;;;;;;;;;;5009366;28;19922;-65
2023/09/28 13:02:34;;;;;;;;;;;;;;;;;;5007676;28;19925;-65
2023/09/28 13:05:01;;;;;;;;;;;;;;;;;;5017487;28;20422;-65
2023/09/28 13:07:26;;;;;;;;;;;;;;;;;;5020865;28;20395;-65
2023/09/28 13:09:52;;;;;;;;;;;;;;;;;;5012601;28;20023;-65
2023/09/28 13:12:18;;;;;;;;;;;;;;;;;;5018386;28;19925;-65
2023/09/28 13:14:45;;;;;;;;;;;;;;;;;;5013060;28;19921;-65
2023/09/28 13:17:11;;;;;;;;;;;;;;;;;;5009784;28;19922;-66
2023/09/28 13:19:39;;;;;;;;;;;;;;;;;;5008988;28;19925;-66
2023/09/28 13:22:05;;;;;;;;;;;;;;;;;;5008943;28;19928;-65
2023/09/28 13:24:32;;;;;;;;;;;;;;;;;;5006086;28;19921;-66
2023/09/28 13:27:05;;;;;;;;;;;;;;;;;;5012274;28;20057;-66
2023/09/28 13:29:31;;;;;;;;;;;;;;;;;;4991223;28;19921;-66
2023/09/28 13:31:57;;;;;;;;;;;;;;;;;;5008565;28;19930;-66
2023/09/28 13:34:22;;;;;;;;;;;;;;;;;;5011265;28;20650;-66
2023/09/28 13:36:48;;;;;;;;;;;;;;;;;;5014436;28;19926;-67
2023/09/28 13:39:27;;;;;;;;;;;;;;;;;;5019151;28;19932;-65
2023/09/28 13:41:53;;;;;;;;;;;;;;;;;;5012999;28;19926;-65
2023/09/28 13:44:20;;;;;;;;;;;;;;;;;;5016949;28;19926;-65
2023/09/28 13:46:46;;;;;;;;;;;;;;;;;;5014173;28;19926;-66
2023/09/28 13:49:12;;;;;;;;;;;;;;;;;;5016650;28;19922;-66
2023/09/28 13:51:38;;;;;;;;;;;;;;;;;;5019500;28;19975;-66
2023/09/28 13:54:04;;;;;;;;;;;;;;;;;;5010035;28;20363;-66
2023/09/28 13:56:34;;;;;;;;;;;;;;;;;;5020722;28;20427;-66
2023/09/28 13:59:01;;;;;;;;;;;;;;;;;;5012496;28;20016;-65
2023/09/28 14:01:27;;;;;;;;;;;;;;;;;;5037161;28;19926;-66
2023/09/28 14:03:53;;;;;;;;;;;;;;;;;;5011582;28;19929;-65
2023/09/28 14:06:18;;;;;;;;;;;;;;;;;;5008807;28;20370;-66
2023/09/28 14:08:44;;;;;;;;;;;;;;;;;;5012403;28;19972;-66
2023/09/28 14:11:12;;;;;;;;;;;;;;;;;;5012562;28;20286;-65
2023/09/28 14:13:38;;;;;;;;;;;;;;;;;;5010594;28;19936;-66
2023/09/28 14:16:06;;;;;;;;;;;;;;;;;;5010329;28;19921;-66
2023/09/28 14:18:31;;;;;;;;;;;;;;;;;;5011567;28;19921;-67
2023/09/28 14:20:57;;;;;;;;;;;;;;;;;;5014426;28;19930;-66
2023/09/28 14:23:23;;;;;;;;;;;;;;;;;;4993288;28;20459;-66
2023/09/28 14:25:51;;;;;;;;;;;;;;;;;;5006181;28;19925;-66
2023/09/28 14:28:17;;;;;;;;;;;;;;;;;;5015332;28;19925;-66
2023/09/28 14:30:44;;;;;;;;;;;;;;;;;;5010236;28;20295;-65
2023/09/28 14:33:09;;;;;;;;;;;;;;;;;;5011284;28;20347;-66
2023/09/28 14:35:36;;;;;;;;;;;;;;;;;;5009307;28;19925;-66
2023/09/28 14:38:03;;;;;;;;;;;;;;;;;;5012288;28;19921;-65
2023/09/28 14:40:29;;;;;;;;;;;;;;;;;;5011883;28;19930;-66
2023/09/28 14:42:55;;;;;;;;;;;;;;;;;;5009387;28;19926;-66
2023/09/28 14:45:21;;;;;;;;;;;;;;;;;;5013804;28;20008;-66
2023/09/28 14:47:47;;;;;;;;;;;;;;;;;;5011113;28;20427;-66
2023/09/28 14:50:13;;;;;;;;;;;;;;;;;;5011827;28;19925;-66
2023/09/28 14:52:39;;;;;;;;;;;;;;;;;;5012250;28;20041;-66
2023/09/28 14:55:06;;;;;;;;;;;;;;;;;;5016032;28;19921;-66
2023/09/28 14:57:32;;;;;;;;;;;;;;;;;;5011597;28;20427;-66
2023/09/28 14:59:59;;;;;;;;;;;;;;;;;;5015062;28;19964;-67
2023/09/28 15:02:25;;;;;;;;;;;;;;;;;;5008695;28;19932;-66
2023/09/28 15:04:51;;;;;;;;;;;;;;;;;;5013139;28;19921;-65
2023/09/28 15:07:17;;;;;;;;;;;;;;;;;;5005822;28;19922;-66
2023/09/28 15:09:43;;;;;;;;;;;;;;;;;;5012763;28;20343;-65
2023/09/28 15:12:08;;;;;;;;;;;;;;;;;;5005531;28;19972;-66
2023/09/28 15:14:37;;;;;;;;;;;;;;;;;;5011309;28;19921;-65
2023/09/28 15:17:03;;;;;;;;;;;;;;;;;;5009736;28;19921;-65
2023/09/28 15:19:29;;;;;;;;;;;;;;;;;;5016770;28;19930;-66
2023/09/28 15:21:55;;;;;;;;;;;;;;;;;;5002650;28;20277;-65
2023/09/28 15:24:21;;;;;;;;;;;;;;;;;;5009488;28;19967;-65
2023/09/28 15:26:47;;;;;;;;;;;;;;;;;;5004858;28;20382;-66
2023/09/28 15:29:13;;;;;;;;;;;;;;;;;;5008970;28;19926;-65
2023/09/28 15:31:39;;;;;;;;;;;;;;;;;;5006613;28;19935;-65
2023/09/28 15:34:05;;;;;;;;;;;;;;;;;;5011958;28;19967;-65
2023/09/28 15:36:31;;;;;;;;;;;;;;;;;;5008457;28;19960;-65
2023/09/28 15:38:57;;;;;;;;;;;;;;;;;;5008671;28;20391;-65
2023/09/28 15:41:23;;;;;;;;;;;;;;;;;;5010441;28;19971;-67
2023/09/28 15:43:49;;;;;;;;;;;;;;;;;;5010952;28;19921;-66
2023/09/28 15:46:15;;;;;;;;;;;;;;;;;;5014365;28;19925;-65
2023/09/28 15:48:41;;;;;;;;;;;;;;;;;;5006874;28;19929;-65
2023/09/28 15:51:07;;;;;;;;;;;;;;;;;;5008056;28;20527;-65
2023/09/28 15:53:33;;;;;;;;;;;;;;;;;;5011124;28;19936;-65
2023/09/28 15:55:59;;;;;;;;;;;;;;;;;;5010928;28;20036;-65
2023/09/28 15:58:25;;;;;;;;;;;;;;;;;;5003878;28;20016;-65
2023/09/28 16:00:50;;;;;;;;;;;;;;;;;;5007141;28;19921;-65
2023/09/28 16:03:16;;;;;;;;;;;;;;;;;;5002978;28;19977;-65
2023/09/28 16:05:42;;;;;;;;;;;;;;;;;;5004359;28;19956;-65
2023/09/28 16:08:08;;;;;;;;;;;;;;;;;;5006833;28;19971;-65
2023/09/28 16:10:34;;;;;;;;;;;;;;;;;;5006669;28;19925;-61
2023/09/28 16:13:00;;;;;;;;;;;;;;;;;;5006951;28;19953;-61
2023/09/28 16:15:26;;;;;;;;;;;;;;;;;;5002633;28;19929;-60
2023/09/28 16:17:52;;;;;;;;;;;;;;;;;;5005813;28;19979;-60
2023/09/28 16:20:18;;;;;;;;;;;;;;;;;;5006983;28;19939;-60
2023/09/28 16:22:44;;;;;;;;;;;;;;;;;;5008100;28;20391;-61
2023/09/28 16:25:10;;;;;;;;;;;;;;;;;;5007124;28;19932;-61
2023/09/28 16:27:36;;;;;;;;;;;;;;;;;;5013816;28;19952;-61
2023/09/28 16:30:01;;;;;;;;;;;;;;;;;;5006482;28;20022;-61
2023/09/28 16:32:27;;;;;;;;;;;;;;;;;;5008679;28;19937;-61
2023/09/28 16:34:54;;;;;;;;;;;;;;;;;;5022697;28;19934;-61
2023/09/28 16:37:20;;;;;;;;;;;;;;;;;;5007843;28;19921;-61
2023/09/28 16:39:46;;;;;;;;;;;;;;;;;;4984034;28;20041;-61